sensor_id;sensor_type;location;lat;lon;timestamp;pressure;altitude;pressure_sealevel;temperature;humidity
19761;BME280;10039;42.632;23.408;2023-07-20T00:01:19;94661.41;;;25.22;55.04
19761;BME280;10039;42.632;23.408;2023-07-20T00:03:45;94635.72;;;25.01;54.41
19761;BME280;10039;42.632;23.408;2023-07-20T00:06:29;94666.69;;;25.15;54.86
19761;BME280;10039;42.632;23.408;2023-07-20T00:08:55;94681.75;;;24.98;55.60
19761;BME280;10039;42.632;23.408;2023-07-20T00:11:24;94681.03;;;24.62;57.02
19761;BME280;10039;42.632;23.408;2023-07-20T00:13:50;94685.88;;;24.40;57.50
19761;BME280;10039;42.632;23.408;2023-07-20T00:16:15;94684.53;;;24.17;58.15
19761;BME280;10039;42.632;23.408;2023-07-20T00:18:41;94681.88;;;24.11;58.43
19761;BME280;10039;42.632;23.408;2023-07-20T00:21:06;94673.72;;;24.00;58.56
19761;BME280;10039;42.632;23.408;2023-07-20T00:23:32;94663.81;;;24.03;58.73
19761;BME280;10039;42.632;23.408;2023-07-20T00:25:57;94647.44;;;24.03;57.65
19761;BME280;10039;42.632;23.408;2023-07-20T00:28:22;94649.50;;;24.26;57.37
19761;BME280;10039;42.632;23.408;2023-07-20T00:30:48;94639.72;;;24.42;57.53
19761;BME280;10039;42.632;23.408;2023-07-20T00:33:16;94660.25;;;24.54;57.17
19761;BME280;10039;42.632;23.408;2023-07-20T00:35:42;94649.28;;;24.59;57.00
19761;BME280;10039;42.632;23.408;2023-07-20T00:38:07;94647.94;;;24.71;56.49
19761;BME280;10039;42.632;23.408;2023-07-20T00:40:40;94630.63;;;24.63;56.54
19761;BME280;10039;42.632;23.408;2023-07-20T00:43:07;94639.19;;;24.49;57.36
19761;BME280;10039;42.632;23.408;2023-07-20T00:45:34;94640.72;;;24.39;57.18
19761;BME280;10039;42.632;23.408;2023-07-20T00:48:01;94650.50;;;24.29;57.30
19761;BME280;10039;42.632;23.408;2023-07-20T00:50:28;94651.50;;;24.26;57.82
19761;BME280;10039;42.632;23.408;2023-07-20T00:52:58;94648.13;;;24.44;57.14
19761;BME280;10039;42.632;23.408;2023-07-20T00:55:24;94619.78;;;24.23;56.61
19761;BME280;10039;42.632;23.408;2023-07-20T00:57:50;94652.28;;;24.21;57.29
19761;BME280;10039;42.632;23.408;2023-07-20T01:00:15;94640.41;;;24.18;57.75
19761;BME280;10039;42.632;23.408;2023-07-20T01:02:41;94640.50;;;24.02;58.59
19761;BME280;10039;42.632;23.408;2023-07-20T01:05:07;94648.13;;;24.09;58.09
19761;BME280;10039;42.632;23.408;2023-07-20T01:07:37;94650.94;;;23.98;59.16
19761;BME280;10039;42.632;23.408;2023-07-20T01:12:53;94666.16;;;23.72;60.26
19761;BME280;10039;42.632;23.408;2023-07-20T01:15:20;94661.47;;;23.72;59.50
19761;BME280;10039;42.632;23.408;2023-07-20T01:17:45;94639.66;;;23.72;59.08
19761;BME280;10039;42.632;23.408;2023-07-20T01:20:16;94662.09;;;24.00;58.87
19761;BME280;10039;42.632;23.408;2023-07-20T01:25:50;94668.94;;;24.17;58.96
19761;BME280;10039;42.632;23.408;2023-07-20T01:31:26;94650.97;;;24.33;58.56
19761;BME280;10039;42.632;23.408;2023-07-20T01:33:55;94649.19;;;24.35;58.66
19761;BME280;10039;42.632;23.408;2023-07-20T01:36:23;94649.16;;;24.41;58.45
19761;BME280;10039;42.632;23.408;2023-07-20T01:38:51;94652.72;;;24.30;58.89
19761;BME280;10039;42.632;23.408;2023-07-20T01:41:17;94656.25;;;24.20;59.41
19761;BME280;10039;42.632;23.408;2023-07-20T01:43:43;94664.75;;;24.11;59.89
19761;BME280;10039;42.632;23.408;2023-07-20T01:46:08;94658.75;;;24.18;59.15
19761;BME280;10039;42.632;23.408;2023-07-20T01:48:34;94653.88;;;24.05;58.98
19761;BME280;10039;42.632;23.408;2023-07-20T01:50:59;94650.00;;;23.90;59.05
19761;BME280;10039;42.632;23.408;2023-07-20T01:53:24;94653.16;;;23.99;59.25
19761;BME280;10039;42.632;23.408;2023-07-20T01:55:52;94648.47;;;24.00;59.26
19761;BME280;10039;42.632;23.408;2023-07-20T01:58:19;94653.94;;;23.94;59.70
19761;BME280;10039;42.632;23.408;2023-07-20T02:00:47;94652.97;;;23.92;59.66
19761;BME280;10039;42.632;23.408;2023-07-20T02:03:12;94646.97;;;23.99;59.29
19761;BME280;10039;42.632;23.408;2023-07-20T02:05:38;94633.88;;;23.92;58.47
19761;BME280;10039;42.632;23.408;2023-07-20T02:08:04;94638.75;;;24.04;58.82
19761;BME280;10039;42.632;23.408;2023-07-20T02:10:30;94636.72;;;24.10;58.49
19761;BME280;10039;42.632;23.408;2023-07-20T02:12:55;94638.47;;;24.08;59.12
19761;BME280;10039;42.632;23.408;2023-07-20T02:15:21;94637.00;;;24.07;58.32
19761;BME280;10039;42.632;23.408;2023-07-20T02:17:47;94639.00;;;24.06;58.55
19761;BME280;10039;42.632;23.408;2023-07-20T02:20:13;94627.38;;;24.00;58.09
19761;BME280;10039;42.632;23.408;2023-07-20T02:22:39;94626.66;;;24.00;58.17
19761;BME280;10039;42.632;23.408;2023-07-20T02:25:05;94622.66;;;24.01;58.64
19761;BME280;10039;42.632;23.408;2023-07-20T02:27:33;94638.47;;;24.08;58.05
19761;BME280;10039;42.632;23.408;2023-07-20T02:29:58;94635.56;;;24.00;58.44
19761;BME280;10039;42.632;23.408;2023-07-20T02:32:24;94605.00;;;23.67;58.62
19761;BME280;10039;42.632;23.408;2023-07-20T02:34:49;94645.03;;;23.94;58.62
19761;BME280;10039;42.632;23.408;2023-07-20T02:37:16;94636.41;;;23.85;59.08
19761;BME280;10039;42.632;23.408;2023-07-20T02:39:41;94630.19;;;23.84;59.18
19761;BME280;10039;42.632;23.408;2023-07-20T02:42:07;94621.53;;;23.75;58.96
19761;BME280;10039;42.632;23.408;2023-07-20T02:44:33;94626.75;;;23.73;58.94
19761;BME280;10039;42.632;23.408;2023-07-20T02:46:58;94627.47;;;23.84;59.37
19761;BME280;10039;42.632;23.408;2023-07-20T02:49:23;94616.78;;;23.86;59.19
19761;BME280;10039;42.632;23.408;2023-07-20T02:51:49;94620.28;;;23.81;59.72
19761;BME280;10039;42.632;23.408;2023-07-20T02:54:15;94597.81;;;23.64;59.24
19761;BME280;10039;42.632;23.408;2023-07-20T02:56:40;94611.69;;;23.61;60.10
19761;BME280;10039;42.632;23.408;2023-07-20T02:59:05;94609.50;;;23.59;59.41
19761;BME280;10039;42.632;23.408;2023-07-20T03:01:31;94586.50;;;23.49;59.67
19761;BME280;10039;42.632;23.408;2023-07-20T03:03:56;94617.91;;;23.61;59.54
19761;BME280;10039;42.632;23.408;2023-07-20T03:06:23;94617.44;;;23.57;59.31
19761;BME280;10039;42.632;23.408;2023-07-20T03:08:48;94621.63;;;23.58;59.59
19761;BME280;10039;42.632;23.408;2023-07-20T03:11:18;94617.19;;;23.55;59.65
19761;BME280;10039;42.632;23.408;2023-07-20T03:13:44;94615.69;;;23.54;60.08
19761;BME280;10039;42.632;23.408;2023-07-20T03:16:11;94616.75;;;23.46;59.90
19761;BME280;10039;42.632;23.408;2023-07-20T03:18:38;94593.75;;;23.36;59.95
19761;BME280;10039;42.632;23.408;2023-07-20T03:21:06;94625.59;;;23.57;59.68
19761;BME280;10039;42.632;23.408;2023-07-20T03:23:32;94594.00;;;23.27;59.14
19761;BME280;10039;42.632;23.408;2023-07-20T03:25:58;94627.63;;;23.46;59.50
19761;BME280;10039;42.632;23.408;2023-07-20T03:28:23;94628.66;;;23.37;59.82
19761;BME280;10039;42.632;23.408;2023-07-20T03:30:58;94639.28;;;23.41;60.03
19761;BME280;10039;42.632;23.408;2023-07-20T03:33:26;94644.03;;;23.40;59.72
19761;BME280;10039;42.632;23.408;2023-07-20T03:35:52;94649.94;;;23.39;60.25
19761;BME280;10039;42.632;23.408;2023-07-20T03:38:19;94642.53;;;23.34;59.96
19761;BME280;10039;42.632;23.408;2023-07-20T03:40:58;94637.84;;;23.29;60.28
19761;BME280;10039;42.632;23.408;2023-07-20T03:43:25;94640.81;;;23.31;60.50
19761;BME280;10039;42.632;23.408;2023-07-20T03:45:51;94650.75;;;23.28;60.41
19761;BME280;10039;42.632;23.408;2023-07-20T03:48:18;94648.53;;;23.16;60.63
19761;BME280;10039;42.632;23.408;2023-07-20T03:50:45;94638.38;;;23.16;60.60
19761;BME280;10039;42.632;23.408;2023-07-20T03:53:11;94658.19;;;23.22;60.57
19761;BME280;10039;42.632;23.408;2023-07-20T03:55:36;94603.25;;;22.96;60.79
19761;BME280;10039;42.632;23.408;2023-07-20T03:58:02;94651.47;;;23.29;60.19
19761;BME280;10039;42.632;23.408;2023-07-20T04:00:28;94645.56;;;23.25;60.26
19761;BME280;10039;42.632;23.408;2023-07-20T04:02:54;94651.00;;;23.19;60.70
19761;BME280;10039;42.632;23.408;2023-07-20T04:05:19;94661.91;;;23.25;60.37
19761;BME280;10039;42.632;23.408;2023-07-20T04:07:45;94663.13;;;23.29;60.15
19761;BME280;10039;42.632;23.408;2023-07-20T04:10:11;94635.19;;;23.01;60.36
19761;BME280;10039;42.632;23.408;2023-07-20T04:12:36;94632.00;;;23.08;60.41
19761;BME280;10039;42.632;23.408;2023-07-20T04:15:02;94649.78;;;23.15;61.27
19761;BME280;10039;42.632;23.408;2023-07-20T04:17:29;94640.38;;;23.10;60.97
19761;BME280;10039;42.632;23.408;2023-07-20T04:19:54;94649.75;;;23.20;60.98
19761;BME280;10039;42.632;23.408;2023-07-20T04:22:20;94645.03;;;23.26;60.67
19761;BME280;10039;42.632;23.408;2023-07-20T04:24:46;94636.09;;;23.37;60.71
19761;BME280;10039;42.632;23.408;2023-07-20T04:27:11;94643.81;;;23.27;61.16
19761;BME280;10039;42.632;23.408;2023-07-20T04:29:37;94633.63;;;23.33;61.26
19761;BME280;10039;42.632;23.408;2023-07-20T04:32:02;94607.94;;;23.18;60.59
19761;BME280;10039;42.632;23.408;2023-07-20T04:34:28;94604.69;;;23.19;60.92
19761;BME280;10039;42.632;23.408;2023-07-20T04:36:53;94633.34;;;23.42;60.63
19761;BME280;10039;42.632;23.408;2023-07-20T04:39:19;94640.13;;;23.14;61.67
19761;BME280;10039;42.632;23.408;2023-07-20T04:41:44;94636.91;;;23.04;62.37
19761;BME280;10039;42.632;23.408;2023-07-20T04:44:09;94636.41;;;23.11;62.76
19761;BME280;10039;42.632;23.408;2023-07-20T04:46:36;94620.31;;;23.19;62.11
19761;BME280;10039;42.632;23.408;2023-07-20T04:49:01;94613.59;;;23.25;61.71
19761;BME280;10039;42.632;23.408;2023-07-20T04:51:27;94603.22;;;23.18;61.11
19761;BME280;10039;42.632;23.408;2023-07-20T04:53:55;94626.13;;;23.50;61.35
19761;BME280;10039;42.632;23.408;2023-07-20T04:56:21;94624.88;;;23.57;60.81
19761;BME280;10039;42.632;23.408;2023-07-20T04:58:48;94608.69;;;23.70;60.38
19761;BME280;10039;42.632;23.408;2023-07-20T05:01:14;94623.69;;;23.92;60.06
19761;BME280;10039;42.632;23.408;2023-07-20T05:03:39;94605.84;;;23.97;59.98
19761;BME280;10039;42.632;23.408;2023-07-20T05:06:04;94584.97;;;23.99;58.75
19761;BME280;10039;42.632;23.408;2023-07-20T05:08:30;94603.19;;;24.21;59.33
19761;BME280;10039;42.632;23.408;2023-07-20T05:10:55;94616.16;;;24.39;58.37
19761;BME280;10039;42.632;23.408;2023-07-20T05:13:21;94605.25;;;24.39;58.02
19761;BME280;10039;42.632;23.408;2023-07-20T05:15:46;94621.03;;;24.57;57.73
19761;BME280;10039;42.632;23.408;2023-07-20T05:18:12;94622.91;;;24.67;57.12
19761;BME280;10039;42.632;23.408;2023-07-20T05:20:38;94624.53;;;24.81;56.93
19761;BME280;10039;42.632;23.408;2023-07-20T05:39:55;94612.47;;;27.96;48.72
19761;BME280;10039;42.632;23.408;2023-07-20T05:42:21;94621.69;;;27.72;49.97
19761;BME280;10039;42.632;23.408;2023-07-20T05:44:47;94602.09;;;27.30;50.08
19761;BME280;10039;42.632;23.408;2023-07-20T05:47:18;94620.38;;;26.96;51.67
19761;BME280;10039;42.632;23.408;2023-07-20T05:49:43;94616.50;;;26.91;51.08
19761;BME280;10039;42.632;23.408;2023-07-20T05:52:09;94614.16;;;26.69;52.06
19761;BME280;10039;42.632;23.408;2023-07-20T05:54:34;94636.22;;;26.90;51.58
19761;BME280;10039;42.632;23.408;2023-07-20T05:56:59;94618.81;;;26.74;50.43
19761;BME280;10039;42.632;23.408;2023-07-20T05:59:27;94622.16;;;26.80;50.98
19761;BME280;10039;42.632;23.408;2023-07-20T06:01:54;94636.31;;;26.97;50.13
19761;BME280;10039;42.632;23.408;2023-07-20T06:04:20;94622.81;;;26.86;50.62
19761;BME280;10039;42.632;23.408;2023-07-20T06:06:45;94594.97;;;26.82;50.42
19761;BME280;10039;42.632;23.408;2023-07-20T06:09:11;94613.06;;;27.17;50.78
19761;BME280;10039;42.632;23.408;2023-07-20T06:11:39;94612.00;;;27.33;50.70
19761;BME280;10039;42.632;23.408;2023-07-20T06:14:05;94626.97;;;27.32;50.73
19761;BME280;10039;42.632;23.408;2023-07-20T06:16:30;94632.47;;;27.44;49.60
19761;BME280;10039;42.632;23.408;2023-07-20T06:18:56;94629.53;;;27.55;50.18
19761;BME280;10039;42.632;23.408;2023-07-20T06:21:22;94622.97;;;27.84;49.71
19761;BME280;10039;42.632;23.408;2023-07-20T06:23:47;94617.81;;;28.01;49.18
19761;BME280;10039;42.632;23.408;2023-07-20T06:26:13;94618.13;;;28.11;48.52
19761;BME280;10039;42.632;23.408;2023-07-20T06:28:38;94602.06;;;28.15;48.47
19761;BME280;10039;42.632;23.408;2023-07-20T06:31:04;94600.84;;;28.36;47.51
19761;BME280;10039;42.632;23.408;2023-07-20T06:33:29;94597.94;;;28.42;48.39
19761;BME280;10039;42.632;23.408;2023-07-20T06:35:55;94598.94;;;28.72;48.21
19761;BME280;10039;42.632;23.408;2023-07-20T06:38:22;94596.56;;;28.48;47.15
19761;BME280;10039;42.632;23.408;2023-07-20T06:40:51;94592.66;;;28.64;47.45
19761;BME280;10039;42.632;23.408;2023-07-20T06:43:17;94604.06;;;28.48;47.39
19761;BME280;10039;42.632;23.408;2023-07-20T06:45:42;94600.38;;;28.65;47.68
19761;BME280;10039;42.632;23.408;2023-07-20T06:48:08;94592.03;;;28.78;47.33
19761;BME280;10039;42.632;23.408;2023-07-20T06:50:34;94598.28;;;28.99;46.71
19761;BME280;10039;42.632;23.408;2023-07-20T06:53:00;94605.53;;;29.17;47.02
19761;BME280;10039;42.632;23.408;2023-07-20T06:55:28;94606.63;;;29.14;47.12
19761;BME280;10039;42.632;23.408;2023-07-20T06:57:54;94605.00;;;29.19;47.04
19761;BME280;10039;42.632;23.408;2023-07-20T07:00:19;94592.63;;;29.05;47.00
19761;BME280;10039;42.632;23.408;2023-07-20T07:02:45;94596.47;;;29.37;46.80
19761;BME280;10039;42.632;23.408;2023-07-20T07:05:10;94615.31;;;29.54;46.66
19761;BME280;10039;42.632;23.408;2023-07-20T07:07:36;94617.94;;;29.67;47.23
19761;BME280;10039;42.632;23.408;2023-07-20T07:10:02;94626.84;;;29.87;46.56
19761;BME280;10039;42.632;23.408;2023-07-20T07:12:30;94635.00;;;30.00;46.29
19761;BME280;10039;42.632;23.408;2023-07-20T07:14:55;94618.06;;;29.96;45.54
19761;BME280;10039;42.632;23.408;2023-07-20T07:17:21;94617.66;;;29.85;45.59
19761;BME280;10039;42.632;23.408;2023-07-20T07:19:46;94643.47;;;30.02;45.35
19761;BME280;10039;42.632;23.408;2023-07-20T07:22:12;94653.78;;;29.81;46.50
19761;BME280;10039;42.632;23.408;2023-07-20T07:24:39;94654.91;;;29.78;45.41
19761;BME280;10039;42.632;23.408;2023-07-20T07:27:07;94663.06;;;29.64;46.32
19761;BME280;10039;42.632;23.408;2023-07-20T07:29:33;94666.19;;;29.60;46.73
19761;BME280;10039;42.632;23.408;2023-07-20T07:31:58;94667.50;;;29.67;46.61
19761;BME280;10039;42.632;23.408;2023-07-20T07:34:24;94655.53;;;29.64;46.24
19761;BME280;10039;42.632;23.408;2023-07-20T07:36:49;94685.44;;;29.95;45.86
19761;BME280;10039;42.632;23.408;2023-07-20T07:39:15;94669.03;;;29.82;46.26
19761;BME280;10039;42.632;23.408;2023-07-20T07:41:41;94660.78;;;29.82;46.44
19761;BME280;10039;42.632;23.408;2023-07-20T07:44:06;94658.50;;;30.01;46.16
19761;BME280;10039;42.632;23.408;2023-07-20T07:46:32;94651.56;;;30.15;45.55
19761;BME280;10039;42.632;23.408;2023-07-20T07:48:57;94656.34;;;30.07;45.64
19761;BME280;10039;42.632;23.408;2023-07-20T07:51:23;94657.66;;;30.21;45.50
19761;BME280;10039;42.632;23.408;2023-07-20T07:53:48;94655.47;;;30.27;45.06
19761;BME280;10039;42.632;23.408;2023-07-20T07:56:14;94620.03;;;30.31;44.69
19761;BME280;10039;42.632;23.408;2023-07-20T07:58:40;94619.75;;;30.65;44.97
19761;BME280;10039;42.632;23.408;2023-07-20T08:01:05;94586.25;;;30.46;44.56
19761;BME280;10039;42.632;23.408;2023-07-20T08:03:31;94627.09;;;30.99;43.87
19761;BME280;10039;42.632;23.408;2023-07-20T08:05:56;94606.34;;;31.21;43.00
19761;BME280;10039;42.632;23.408;2023-07-20T08:08:22;94607.59;;;31.35;42.87
19761;BME280;10039;42.632;23.408;2023-07-20T08:10:48;94609.91;;;31.76;42.56
19761;BME280;10039;42.632;23.408;2023-07-20T08:13:14;94627.75;;;31.82;42.15
19761;BME280;10039;42.632;23.408;2023-07-20T08:15:41;94638.75;;;31.90;41.89
19761;BME280;10039;42.632;23.408;2023-07-20T08:18:07;94635.81;;;31.88;41.92
19761;BME280;10039;42.632;23.408;2023-07-20T08:20:33;94663.41;;;31.95;41.21
19761;BME280;10039;42.632;23.408;2023-07-20T08:23:01;94668.66;;;31.69;42.15
19761;BME280;10039;42.632;23.408;2023-07-20T08:25:26;94662.78;;;31.27;42.66
19761;BME280;10039;42.632;23.408;2023-07-20T08:27:51;94665.19;;;31.01;43.77
19761;BME280;10039;42.632;23.408;2023-07-20T08:30:17;94644.38;;;30.70;44.64
19761;BME280;10039;42.632;23.408;2023-07-20T08:32:43;94669.00;;;30.68;44.51
19761;BME280;10039;42.632;23.408;2023-07-20T08:35:08;94652.66;;;30.70;45.19
19761;BME280;10039;42.632;23.408;2023-07-20T08:37:34;94649.84;;;30.48;45.53
19761;BME280;10039;42.632;23.408;2023-07-20T08:39:59;94636.28;;;30.57;45.53
19761;BME280;10039;42.632;23.408;2023-07-20T08:42:25;94649.16;;;30.62;46.08
19761;BME280;10039;42.632;23.408;2023-07-20T08:44:52;94660.59;;;30.96;46.24
19761;BME280;10039;42.632;23.408;2023-07-20T08:47:18;94653.03;;;30.82;46.24
19761;BME280;10039;42.632;23.408;2023-07-20T08:49:48;94640.53;;;30.73;46.41
19761;BME280;10039;42.632;23.408;2023-07-20T08:52:14;94662.06;;;31.12;45.11
19761;BME280;10039;42.632;23.408;2023-07-20T08:54:39;94648.09;;;31.17;44.26
19761;BME280;10039;42.632;23.408;2023-07-20T08:57:05;94650.66;;;31.08;41.91
19761;BME280;10039;42.632;23.408;2023-07-20T08:59:32;94638.50;;;30.96;41.79
19761;BME280;10039;42.632;23.408;2023-07-20T09:02:00;94652.50;;;31.13;42.80
19761;BME280;10039;42.632;23.408;2023-07-20T09:04:27;94647.34;;;31.32;42.34
19761;BME280;10039;42.632;23.408;2023-07-20T09:06:53;94642.22;;;31.06;41.49
19761;BME280;10039;42.632;23.408;2023-07-20T09:09:18;94644.03;;;31.33;41.94
19761;BME280;10039;42.632;23.408;2023-07-20T09:11:48;94641.84;;;31.32;40.36
19761;BME280;10039;42.632;23.408;2023-07-20T09:14:13;94639.75;;;31.55;39.59
19761;BME280;10039;42.632;23.408;2023-07-20T09:17:00;94649.19;;;31.37;39.01
19761;BME280;10039;42.632;23.408;2023-07-20T09:19:25;94631.84;;;31.44;39.56
19761;BME280;10039;42.632;23.408;2023-07-20T09:21:51;94641.78;;;31.54;39.21
19761;BME280;10039;42.632;23.408;2023-07-20T09:24:18;94614.59;;;31.28;39.95
19761;BME280;10039;42.632;23.408;2023-07-20T09:26:45;94626.34;;;31.44;39.22
19761;BME280;10039;42.632;23.408;2023-07-20T09:29:13;94629.28;;;31.46;38.84
19761;BME280;10039;42.632;23.408;2023-07-20T09:31:39;94600.22;;;31.45;39.17
19761;BME280;10039;42.632;23.408;2023-07-20T09:34:07;94624.13;;;31.65;38.99
19761;BME280;10039;42.632;23.408;2023-07-20T09:36:36;94606.78;;;31.72;39.04
19761;BME280;10039;42.632;23.408;2023-07-20T09:39:03;94626.66;;;31.78;38.97
19761;BME280;10039;42.632;23.408;2023-07-20T09:41:29;94606.94;;;31.81;38.86
19761;BME280;10039;42.632;23.408;2023-07-20T09:43:55;94637.44;;;32.37;38.50
19761;BME280;10039;42.632;23.408;2023-07-20T09:46:20;94620.59;;;32.50;37.72
19761;BME280;10039;42.632;23.408;2023-07-20T09:48:53;94617.31;;;32.44;36.40
19761;BME280;10039;42.632;23.408;2023-07-20T09:51:22;94591.38;;;32.40;37.55
19761;BME280;10039;42.632;23.408;2023-07-20T09:53:48;94621.03;;;32.71;36.48
19761;BME280;10039;42.632;23.408;2023-07-20T09:56:16;94607.81;;;32.62;36.00
19761;BME280;10039;42.632;23.408;2023-07-20T09:58:44;94593.00;;;32.04;36.01
19761;BME280;10039;42.632;23.408;2023-07-20T10:01:12;94600.16;;;32.21;35.85
19761;BME280;10039;42.632;23.408;2023-07-20T10:03:41;94575.94;;;32.61;37.51
19761;BME280;10039;42.632;23.408;2023-07-20T10:06:13;94571.28;;;33.13;35.48
19761;BME280;10039;42.632;23.408;2023-07-20T10:08:41;94559.28;;;33.10;35.45
19761;BME280;10039;42.632;23.408;2023-07-20T10:11:07;94585.47;;;32.92;35.50
19761;BME280;10039;42.632;23.408;2023-07-20T10:13:38;94579.38;;;32.69;35.97
19761;BME280;10039;42.632;23.408;2023-07-20T10:16:07;94566.88;;;32.61;35.88
19761;BME280;10039;42.632;23.408;2023-07-20T10:18:41;94581.22;;;32.42;35.61
19761;BME280;10039;42.632;23.408;2023-07-20T10:21:10;94582.16;;;32.37;36.14
19761;BME280;10039;42.632;23.408;2023-07-20T10:23:35;94580.38;;;32.32;35.69
19761;BME280;10039;42.632;23.408;2023-07-20T10:26:01;94592.34;;;32.59;35.35
19761;BME280;10039;42.632;23.408;2023-07-20T10:28:28;94601.16;;;32.90;35.08
19761;BME280;10039;42.632;23.408;2023-07-20T10:30:53;94600.13;;;33.02;35.51
19761;BME280;10039;42.632;23.408;2023-07-20T10:33:19;94608.66;;;32.48;33.49
19761;BME280;10039;42.632;23.408;2023-07-20T10:35:56;94599.97;;;32.19;34.27
19761;BME280;10039;42.632;23.408;2023-07-20T10:43:49;94590.72;;;31.85;35.64
19761;BME280;10039;42.632;23.408;2023-07-20T10:46:43;94591.69;;;31.73;35.31
19761;BME280;10039;42.632;23.408;2023-07-20T10:49:10;94584.16;;;31.58;35.14
19761;BME280;10039;42.632;23.408;2023-07-20T10:51:44;94578.84;;;31.53;35.00
19761;BME280;10039;42.632;23.408;2023-07-20T10:56:42;94512.88;;;31.72;35.66
19761;BME280;10039;42.632;23.408;2023-07-20T10:59:19;94521.34;;;31.74;36.18
19761;BME280;10039;42.632;23.408;2023-07-20T11:01:45;94517.78;;;31.41;35.90
19761;BME280;10039;42.632;23.408;2023-07-20T11:04:12;94526.22;;;31.51;36.19
19761;BME280;10039;42.632;23.408;2023-07-20T11:06:42;94534.31;;;31.49;35.99
19761;BME280;10039;42.632;23.408;2023-07-20T11:09:10;94528.16;;;31.73;36.27
19761;BME280;10039;42.632;23.408;2023-07-20T11:11:47;94512.81;;;31.87;36.72
19761;BME280;10039;42.632;23.408;2023-07-20T11:14:26;94501.72;;;31.94;35.55
19761;BME280;10039;42.632;23.408;2023-07-20T11:16:52;94502.63;;;32.28;36.33
19761;BME280;10039;42.632;23.408;2023-07-20T11:19:20;94515.78;;;32.45;34.90
19761;BME280;10039;42.632;23.408;2023-07-20T11:21:53;94523.22;;;32.59;35.23
19761;BME280;10039;42.632;23.408;2023-07-20T11:24:19;94527.16;;;32.73;35.04
19761;BME280;10039;42.632;23.408;2023-07-20T11:26:45;94516.16;;;32.90;35.96
19761;BME280;10039;42.632;23.408;2023-07-20T11:29:12;94519.00;;;33.00;36.25
19761;BME280;10039;42.632;23.408;2023-07-20T11:31:39;94487.91;;;33.09;35.03
19761;BME280;10039;42.632;23.408;2023-07-20T11:34:06;94476.59;;;33.31;34.95
19761;BME280;10039;42.632;23.408;2023-07-20T11:36:33;94499.22;;;33.54;34.79
19761;BME280;10039;42.632;23.408;2023-07-20T11:38:59;94497.41;;;33.83;34.78
19761;BME280;10039;42.632;23.408;2023-07-20T11:41:25;94488.72;;;33.96;34.51
19761;BME280;10039;42.632;23.408;2023-07-20T11:43:52;94490.31;;;34.16;33.97
19761;BME280;10039;42.632;23.408;2023-07-20T11:46:17;94481.50;;;33.83;34.72
19761;BME280;10039;42.632;23.408;2023-07-20T11:48:43;94479.84;;;33.97;35.80
19761;BME280;10039;42.632;23.408;2023-07-20T11:51:16;94476.09;;;34.12;34.49
19761;BME280;10039;42.632;23.408;2023-07-20T11:53:43;94472.28;;;34.34;34.20
19761;BME280;10039;42.632;23.408;2023-07-20T11:56:09;94470.56;;;34.48;34.45
19761;BME280;10039;42.632;23.408;2023-07-20T11:58:35;94463.84;;;34.41;34.66
19761;BME280;10039;42.632;23.408;2023-07-20T12:01:00;94455.56;;;34.51;35.53
19761;BME280;10039;42.632;23.408;2023-07-20T12:03:26;94432.06;;;34.52;35.13
19761;BME280;10039;42.632;23.408;2023-07-20T12:05:52;94456.22;;;34.87;34.24
19761;BME280;10039;42.632;23.408;2023-07-20T12:08:17;94448.34;;;34.93;34.11
19761;BME280;10039;42.632;23.408;2023-07-20T12:10:43;94447.44;;;34.90;33.38
19761;BME280;10039;42.632;23.408;2023-07-20T12:13:10;94434.09;;;34.60;33.68
19761;BME280;10039;42.632;23.408;2023-07-20T12:15:37;94431.03;;;34.57;34.14
19761;BME280;10039;42.632;23.408;2023-07-20T12:18:03;94442.13;;;34.57;34.49
19761;BME280;10039;42.632;23.408;2023-07-20T12:20:33;94420.16;;;34.23;34.57
19761;BME280;10039;42.632;23.408;2023-07-20T12:23:13;94426.19;;;34.48;33.27
19761;BME280;10039;42.632;23.408;2023-07-20T12:25:44;94427.22;;;34.43;33.91
19761;BME280;10039;42.632;23.408;2023-07-20T12:28:14;94434.59;;;34.31;34.35
19761;BME280;10039;42.632;23.408;2023-07-20T12:30:41;94397.53;;;34.26;34.54
19761;BME280;10039;42.632;23.408;2023-07-20T12:33:07;94421.16;;;34.63;34.18
19761;BME280;10039;42.632;23.408;2023-07-20T12:35:33;94417.22;;;34.94;33.49
19761;BME280;10039;42.632;23.408;2023-07-20T12:37:59;94420.72;;;34.76;33.31
19761;BME280;10039;42.632;23.408;2023-07-20T12:40:25;94417.22;;;34.66;32.78
19761;BME280;10039;42.632;23.408;2023-07-20T12:42:50;94416.81;;;34.88;32.96
19761;BME280;10039;42.632;23.408;2023-07-20T12:45:16;94417.66;;;35.00;31.99
19761;BME280;10039;42.632;23.408;2023-07-20T12:47:41;94419.28;;;35.03;31.18
19761;BME280;10039;42.632;23.408;2023-07-20T12:50:09;94411.72;;;34.40;31.65
19761;BME280;10039;42.632;23.408;2023-07-20T12:52:39;94411.88;;;34.42;32.04
19761;BME280;10039;42.632;23.408;2023-07-20T12:55:07;94398.88;;;34.35;32.03
19761;BME280;10039;42.632;23.408;2023-07-20T12:57:36;94404.22;;;34.14;32.17
19761;BME280;10039;42.632;23.408;2023-07-20T13:00:07;94398.47;;;34.48;32.44
19761;BME280;10039;42.632;23.408;2023-07-20T13:02:35;94418.38;;;34.72;30.96
19761;BME280;10039;42.632;23.408;2023-07-20T13:05:02;94376.56;;;34.52;29.06
19761;BME280;10039;42.632;23.408;2023-07-20T13:07:32;94421.50;;;34.41;29.63
19761;BME280;10039;42.632;23.408;2023-07-20T13:10:02;94410.81;;;34.28;30.06
19761;BME280;10039;42.632;23.408;2023-07-20T13:12:29;94409.91;;;34.16;30.46
19761;BME280;10039;42.632;23.408;2023-07-20T13:14:55;94385.44;;;34.31;30.55
19761;BME280;10039;42.632;23.408;2023-07-20T13:17:24;94399.31;;;34.31;30.02
19761;BME280;10039;42.632;23.408;2023-07-20T13:19:50;94407.03;;;34.42;30.08
19761;BME280;10039;42.632;23.408;2023-07-20T13:22:15;94391.84;;;34.34;31.03